Terminal Aerodrome Forecast
Issued by NWS

Home | Current Version | Previous Version | Text Only | Print | Product List | Glossary On
Versions: 1 2 3 4 5 6 7 8 9 10 11 12 13 14
000
FTUS44 KEPZ 030520
TAFDMN
TAF
KDMN 030520Z 0306/0406 25007KT P6SM FEW080 SCT120 BKN250
     FM031700 34007KT P6SM FEW080
     FM032000 27007KT P6SM SCT080 SCT120 BKN250
     FM040300 29006KT P6SM FEW080 SCT120 SCT250=

USA.gov is the U.S. government's official web portal to all federal, state and local government web resources and services.